Polis 139-9950 — SFC7700 — position and weather

sailwx.info

Track history (hours):
 
Tides and Currents Weather Stations Pressure Air Temp Water Temp Dewpoint Dewpoint Depression Visibility Wind Speed Wind Dir Waves Ship Positions

Polis 139-9950

Last reported at 2017-Aug-22 09:00 UTC. Time now 2017-Aug-22 09:14 UTC.
Position N 59°24' E 018°22'.

Length 16 m.

Type: Law enforcement. MMSI: 265565600.

Date/timePositionNaut miles runAvg speedWind from/ knotsBaromVisibWave heightAir tempDewpointWater temp
2017-Aug-22 09:00N 59°24' E 018°22'0 0.5
2017-Aug-22 08:29N 59°24' E 018°22'816.4
2017-Aug-22 08:00N 59°19' E 018°10'0 0.0
2017-Aug-22 07:30N 59°19' E 018°10'0 0.0
2017-Aug-22 07:00N 59°19' E 018°10'0 0.0
2017-Aug-22 06:30N 59°19' E 018°10'0 0.0
2017-Aug-22 06:00N 59°19' E 018°10'0 0.0
2017-Aug-22 05:30N 59°19' E 018°10'0 0.0
2017-Aug-22 05:00N 59°19' E 018°10'0 0.0
2017-Aug-22 04:30N 59°19' E 018°10'0 0.0
2017-Aug-22 04:00N 59°19' E 018°10'0 0.0
2017-Aug-22 03:30N 59°19' E 018°10'0 0.0
2017-Aug-22 03:00N 59°19' E 018°10'0 0.0
2017-Aug-22 02:30N 59°19' E 018°10'0 0.0
2017-Aug-22 02:00N 59°19' E 018°10'0 0.0
2017-Aug-22 01:30N 59°19' E 018°10'0 0.0
2017-Aug-22 00:59N 59°19' E 018°10'0 0.0
2017-Aug-22 00:30N 59°19' E 018°10'0 0.0
2017-Aug-22 00:00N 59°19' E 018°10'0 0.0
2017-Aug-21 23:30N 59°19' E 018°10'0 0.0
2017-Aug-21 23:00N 59°19' E 018°10'0 0.0
2017-Aug-21 22:30N 59°19' E 018°10'0 0.0
2017-Aug-21 22:00N 59°19' E 018°10'0 0.0
2017-Aug-21 21:30N 59°19' E 018°10'0 0.0
2017-Aug-21 21:00N 59°19' E 018°10'0 0.0
2017-Aug-21 20:30N 59°19' E 018°10'0 0.0
2017-Aug-21 20:00N 59°19' E 018°10'0 0.0
2017-Aug-21 19:30N 59°19' E 018°10'0 0.0
2017-Aug-21 19:00N 59°19' E 018°10'0 0.0
2017-Aug-21 18:30N 59°19' E 018°10'0 0.0
2017-Aug-21 18:00N 59°19' E 018°10'0 0.0
2017-Aug-21 17:30N 59°19' E 018°10'0 0.0
2017-Aug-21 17:00N 59°19' E 018°10'0 0.0
2017-Aug-21 16:30N 59°19' E 018°10'0 0.0
2017-Aug-21 16:00N 59°19' E 018°10'0 0.0
2017-Aug-21 15:30N 59°19' E 018°10'0 0.0
2017-Aug-21 15:00N 59°19' E 018°10'0 0.0
2017-Aug-21 14:30N 59°19' E 018°10'0 0.0
2017-Aug-21 14:00N 59°19' E 018°10'0 0.0
2017-Aug-21 13:30N 59°19' E 018°10'2 4.5
2017-Aug-21 13:00N 59°18' E 018°06'2 4.6
2017-Aug-21 12:29N 59°19' E 018°01'1 2.1
2017-Aug-21 11:59N 59°19' E 017°59'1 2.1
2017-Aug-21 11:30N 59°20' E 017°60'1 1.3
2017-Aug-21 11:00N 59°21' E 017°59'1 0.7
2017-Aug-21 10:19N 59°21' E 017°58'0 0.0
2017-Aug-21 09:51N 59°21' E 017°58'0 1.2
2017-Aug-21 09:30N 59°21' E 017°59'3 6.7
2017-Aug-21 09:00N 59°18' E 018°03'2 3.1
2017-Aug-21 08:30N 59°19' E 018°06'2 3.6
2017-Aug-21 08:00N 59°19' E 018°10'0 0.0
2017-Aug-21 07:30N 59°19' E 018°10'0 0.0
2017-Aug-21 07:00N 59°19' E 018°10'0 0.0
2017-Aug-21 06:30N 59°19' E 018°10'0 0.0
2017-Aug-21 06:00N 59°19' E 018°10'0 0.0
2017-Aug-21 05:30N 59°19' E 018°10'0 0.0
2017-Aug-21 05:00N 59°19' E 018°10'0 0.0
2017-Aug-21 04:30N 59°19' E 018°10'0 0.0
2017-Aug-21 04:00N 59°19' E 018°10'0 0.0
2017-Aug-21 03:30N 59°19' E 018°10'0 0.0
2017-Aug-21 03:00N 59°19' E 018°10'0 0.0
2017-Aug-21 02:30N 59°19' E 018°10'0 0.0
2017-Aug-21 02:00N 59°19' E 018°10'0 0.0
2017-Aug-21 01:30N 59°19' E 018°10'0 0.0
2017-Aug-21 01:00N 59°19' E 018°10'0 0.0
2017-Aug-21 00:30N 59°19' E 018°10'0 0.0
2017-Aug-21 00:00N 59°19' E 018°10'0 0.0
2017-Aug-20 23:30N 59°19' E 018°10'0 0.0
2017-Aug-20 23:00N 59°19' E 018°10'0 0.0
2017-Aug-20 22:30N 59°19' E 018°10'0 0.0
2017-Aug-20 22:00N 59°19' E 018°10'0 0.0
2017-Aug-20 21:30N 59°19' E 018°10'0 0.0
2017-Aug-20 21:00N 59°19' E 018°10'0 0.0
2017-Aug-20 20:31N 59°19' E 018°10'0 0.0
2017-Aug-20 20:00N 59°19' E 018°10'0 0.0
2017-Aug-20 19:30N 59°19' E 018°10'0 0.1
2017-Aug-20 19:00N 59°19' E 018°10'0 0.1
2017-Aug-20 18:30N 59°19' E 018°10'0 0.0
2017-Aug-20 18:00N 59°19' E 018°10'0 0.0
2017-Aug-20 17:31N 59°19' E 018°10'0 0.0
2017-Aug-20 17:00N 59°19' E 018°10'0 0.0
2017-Aug-20 16:30N 59°19' E 018°10'1 2.7
2017-Aug-20 16:00N 59°20' E 018°12'1929.0
2017-Aug-20 15:22N 59°33' E 018°37'1132.0
2017-Aug-20 15:01N 59°40' E 018°56'714.0
2017-Aug-20 14:30N 59°45' E 019°05'5 9.1
2017-Aug-20 14:01N 59°45' E 019°14'510.6
2017-Aug-20 13:30N 59°45' E 019°24'0 0.0
2017-Aug-20 13:00N 59°45' E 019°24'0 0.0
2017-Aug-20 12:30N 59°45' E 019°24'0 0.0
2017-Aug-20 12:00N 59°45' E 019°24'0 0.0
2017-Aug-20 11:30N 59°45' E 019°24'0 0.0
2017-Aug-20 11:00N 59°45' E 019°24'0 0.0
2017-Aug-20 10:30N 59°45' E 019°24'0 0.0
2017-Aug-20 10:00N 59°45' E 019°24'0 0.0
2017-Aug-20 09:30N 59°45' E 019°24'2 3.0
2017-Aug-20 09:00N 59°44' E 019°23'0 0.0
2017-Aug-20 08:30N 59°44' E 019°23'0 0.0
2017-Aug-20 08:00N 59°44' E 019°23'0 0.0
2017-Aug-20 07:30N 59°44' E 019°23'0 0.0
2017-Aug-20 07:00N 59°44' E 019°23'0 0.0
2017-Aug-20 06:30N 59°44' E 019°23'0 0.0
2017-Aug-20 06:00N 59°44' E 019°23'0 0.0
2017-Aug-20 05:30N 59°44' E 019°23'0 0.0
2017-Aug-20 05:00N 59°44' E 019°23'0 0.0
2017-Aug-20 04:30N 59°44' E 019°23'0 0.0
2017-Aug-20 04:00N 59°44' E 019°23'0 0.0
2017-Aug-20 03:31N 59°44' E 019°23'0 0.0
2017-Aug-20 03:00N 59°44' E 019°23'0 0.0
2017-Aug-20 02:30N 59°44' E 019°23'0 0.0
2017-Aug-20 02:00N 59°44' E 019°23'0 0.0
2017-Aug-20 01:30N 59°44' E 019°23'0 0.0
2017-Aug-20 01:00N 59°44' E 019°23'0 0.0
2017-Aug-20 00:30N 59°44' E 019°23'0 0.0
2017-Aug-20 00:00N 59°44' E 019°23'2 4.1
2017-Aug-19 23:30N 59°43' E 019°19'612.2
2017-Aug-19 23:01N 59°45' E 019°08'5 9.6
2017-Aug-19 22:30N 59°46' E 018°59'4 7.8
2017-Aug-19 22:00N 59°46' E 018°51'2 5.0
2017-Aug-19 21:30N 59°45' E 018°46'2 3.7
2017-Aug-19 21:00N 59°46' E 018°49'4 7.8
2017-Aug-19 20:30N 59°47' E 018°57'4 7.6
2017-Aug-19 20:00N 59°46' E 019°04'1122.0
2017-Aug-19 19:31N 59°38' E 018°50'15 8.2
2017-Aug-19 17:44N 59°27' E 018°31'514.1
2017-Aug-19 17:24N 59°24' E 018°38'6 4.5
2017-Aug-19 16:00N 59°25' E 018°27'917.2
2017-Aug-19 15:30N 59°20' E 018°13'2 4.2
2017-Aug-19 15:00N 59°19' E 018°10'0 0.0
2017-Aug-19 14:00N 59°19' E 018°10'0 0.0
2017-Aug-19 13:30N 59°19' E 018°10'0 0.0
2017-Aug-19 13:00N 59°19' E 018°10'0 0.0
2017-Aug-19 12:31N 59°19' E 018°10'0 0.0
2017-Aug-19 12:00N 59°19' E 018°10'0 0.0
2017-Aug-19 11:30N 59°19' E 018°10'0 0.0
2017-Aug-19 11:01N 59°19' E 018°10'0 0.0
2017-Aug-19 10:30N 59°19' E 018°10'0 0.0
2017-Aug-19 10:00N 59°19' E 018°10'0 0.0
2017-Aug-19 09:30N 59°19' E 018°10'0 0.0
2017-Aug-19 09:00N 59°19' E 018°10'0 0.0
2017-Aug-19 08:30N 59°19' E 018°10'0 0.0
2017-Aug-19 08:01N 59°19' E 018°10'0 0.0
2017-Aug-19 07:31N 59°19' E 018°10'0 0.0
2017-Aug-19 07:00N 59°19' E 018°10'0 0.0
2017-Aug-19 06:31N 59°19' E 018°10'0 0.0
2017-Aug-19 06:00N 59°19' E 018°10'0 0.0
2017-Aug-19 05:31N 59°19' E 018°10'0 0.0
2017-Aug-19 05:00N 59°19' E 018°10'0 0.0
2017-Aug-19 04:30N 59°19' E 018°10'0 0.0
2017-Aug-19 04:01N 59°19' E 018°10'0 0.0
2017-Aug-19 03:30N 59°19' E 018°10'0 0.0
2017-Aug-19 03:00N 59°19' E 018°10'0 0.0
2017-Aug-19 02:31N 59°19' E 018°10'0 0.0
2017-Aug-19 02:01N 59°19' E 018°10'0 0.0
2017-Aug-19 01:31N 59°19' E 018°10'0 0.0
2017-Aug-19 01:00N 59°19' E 018°10'0 0.0
2017-Aug-19 00:30N 59°19' E 018°10'0 0.0
2017-Aug-19 00:01N 59°19' E 018°10'0 0.0
2017-Aug-18 23:30N 59°19' E 018°10'0 0.0
2017-Aug-18 23:00N 59°19' E 018°10'0 0.0
2017-Aug-18 22:30N 59°19' E 018°10'0 0.0
2017-Aug-18 22:00N 59°19' E 018°10'0 0.0
2017-Aug-18 21:30N 59°19' E 018°10'0 0.0
2017-Aug-18 21:01N 59°19' E 018°10'0 0.0
2017-Aug-18 20:30N 59°19' E 018°10'0 0.0
2017-Aug-18 20:01N 59°19' E 018°10'0 0.0
2017-Aug-18 19:30N 59°19' E 018°10'0 0.0
2017-Aug-18 19:01N 59°19' E 018°10'0 0.0
2017-Aug-18 18:31N 59°19' E 018°10'0 0.0
2017-Aug-18 18:01N 59°19' E 018°10'0 0.0
2017-Aug-18 17:31N 59°19' E 018°10'0 0.0
2017-Aug-18 17:00N 59°19' E 018°10'0 0.0
2017-Aug-18 16:31N 59°19' E 018°10'0 0.0
2017-Aug-18 16:01N 59°19' E 018°10'0 0.0
2017-Aug-18 15:30N 59°19' E 018°10'0 0.0
2017-Aug-18 15:00N 59°19' E 018°10'0 0.0
2017-Aug-18 14:00N 59°19' E 018°10'0 0.0
2017-Aug-18 13:30N 59°19' E 018°10'0 0.0
2017-Aug-18 13:00N 59°19' E 018°10'1 1.5
2017-Aug-18 12:30N 59°20' E 018°10'3 5.9
2017-Aug-18 12:00N 59°22' E 018°06'4 8.0
2017-Aug-18 11:31N 59°24' E 018°00'0 0.4
2017-Aug-18 10:35N 59°25' E 017°60'0 5.4
2017-Aug-18 10:31N 59°24' E 018°00'611.6
2017-Aug-18 10:01N 59°21' E 018°09'1 3.0
2017-Aug-18 09:30N 59°19' E 018°10'0 0.2
2017-Aug-18 09:01N 59°19' E 018°10'0 0.2
2017-Aug-18 08:30N 59°19' E 018°10'0 0.0
2017-Aug-18 08:00N 59°19' E 018°10'0 0.0
2017-Aug-18 07:30N 59°19' E 018°10'0 0.0
2017-Aug-18 07:00N 59°19' E 018°10'0 0.0
2017-Aug-18 06:29N 59°19' E 018°10'0 0.0
2017-Aug-18 06:00N 59°19' E 018°10'0 0.0
2017-Aug-18 05:30N 59°19' E 018°10'0 0.0
2017-Aug-18 05:00N 59°19' E 018°10'0 0.0
2017-Aug-18 04:30N 59°19' E 018°10'0 0.0
2017-Aug-18 04:00N 59°19' E 018°10'0 0.0
2017-Aug-18 03:30N 59°19' E 018°10'0 0.0
2017-Aug-18 03:00N 59°19' E 018°10'0 0.0
2017-Aug-18 02:30N 59°19' E 018°10'0 0.0
2017-Aug-18 02:00N 59°19' E 018°10'0 0.0
2017-Aug-18 01:30N 59°19' E 018°10'0 0.0
2017-Aug-18 01:00N 59°19' E 018°10'3 6.6
2017-Aug-18 00:31N 59°21' E 018°15'1020.3
2017-Aug-18 00:01N 59°29' E 018°27'713.0
2017-Aug-17 23:30N 59°33' E 018°37'3 6.2
2017-Aug-17 23:01N 59°35' E 018°42'3 6.3
2017-Aug-17 22:30N 59°36' E 018°48'1 2.2
2017-Aug-17 22:01N 59°37' E 018°49'1121.5
2017-Aug-17 21:30N 59°31' E 018°31'1631.1
2017-Aug-17 21:01N 59°20' E 018°11'1 1.8
2017-Aug-17 20:29N 59°19' E 018°10'0 0.0
2017-Aug-17 20:00N 59°19' E 018°10'0 0.0
2017-Aug-17 19:30N 59°19' E 018°10'0 0.0
2017-Aug-17 19:00N 59°19' E 018°10'0 0.0
2017-Aug-17 18:31N 59°19' E 018°10'0 0.0
2017-Aug-17 18:00N 59°19' E 018°10'0 0.0
2017-Aug-17 17:29N 59°19' E 018°10'0 0.0
2017-Aug-17 17:00N 59°19' E 018°10'0 0.0
2017-Aug-17 16:30N 59°19' E 018°10'0 0.0
2017-Aug-17 16:00N 59°19' E 018°10'0 0.0
2017-Aug-17 15:30N 59°19' E 018°10'0 0.0
2017-Aug-17 15:00N 59°19' E 018°10'0 0.0
2017-Aug-17 14:30N 59°19' E 018°10'0 0.0
2017-Aug-17 14:00N 59°19' E 018°10'0 0.0
2017-Aug-17 13:30N 59°19' E 018°10'0 0.0
2017-Aug-17 13:00N 59°19' E 018°10'0 0.0
2017-Aug-17 12:30N 59°19' E 018°10'0 0.0
2017-Aug-17 12:00N 59°19' E 018°10'0 0.0
2017-Aug-17 11:30N 59°19' E 018°10'713.9
2017-Aug-17 11:00N 59°22' E 018°22'5 9.6
2017-Aug-17 10:28N 59°27' E 018°19'0 0.3
2017-Aug-17 09:54N 59°27' E 018°19'1 2.7
2017-Aug-17 09:26N 59°28' E 018°17'3 7.6
2017-Aug-17 08:58N 59°27' E 018°23'1619.8
2017-Aug-17 08:09N 59°22' E 018°54'2 6.5
2017-Aug-17 07:54N 59°21' E 018°56'4 9.0
2017-Aug-17 07:30N 59°17' E 018°57'0 0.0
2017-Aug-17 07:00N 59°17' E 018°57'0 0.0
2017-Aug-17 06:31N 59°17' E 018°57'0 0.0
2017-Aug-17 05:59N 59°17' E 018°57'0 0.0
2017-Aug-17 05:31N 59°17' E 018°57'0 0.0
2017-Aug-17 05:00N 59°17' E 018°57'0 0.0
2017-Aug-17 04:30N 59°17' E 018°57'0 0.0
2017-Aug-17 04:00N 59°17' E 018°57'0 0.0
2017-Aug-17 03:30N 59°17' E 018°57'0 0.0
2017-Aug-17 03:00N 59°17' E 018°57'0 0.0
2017-Aug-17 02:30N 59°17' E 018°57'0 0.0
2017-Aug-17 00:20N 59°17' E 018°57'0 0.0
2017-Aug-17 00:00N 59°17' E 018°57'0 0.0
2017-Aug-16 23:28N 59°17' E 018°57'0 0.0
2017-Aug-16 23:00N 59°17' E 018°57'7 1.3
2017-Aug-16 17:27N 59°24' E 018°54'511.5
2017-Aug-16 17:01N 59°29' E 018°50'12 8.4
2017-Aug-16 15:33N 59°28' E 018°26'1 3.9
2017-Aug-16 15:18N 59°28' E 018°24'617.7
2017-Aug-16 14:58N 59°22' E 018°24'816.5
2017-Aug-16 14:29N 59°19' E 018°10'0 0.0
2017-Aug-16 14:00N 59°19' E 018°10'0 0.0
2017-Aug-16 13:30N 59°19' E 018°10'1 1.5
2017-Aug-16 13:00N 59°20' E 018°10'1 1.4
2017-Aug-16 12:30N 59°19' E 018°10'815.0
2017-Aug-16 11:58N 59°24' E 018°22'1220.5
2017-Aug-16 11:22N 59°34' E 018°37'1028.3
2017-Aug-16 11:01N 59°39' E 018°54'815.4
2017-Aug-16 10:30N 59°46' E 018°59'816.7
2017-Aug-16 10:00N 59°45' E 018°43'0 0.3
2017-Aug-16 09:31N 59°45' E 018°43'2 3.4
2017-Aug-16 09:00N 59°45' E 018°46'4 7.4
2017-Aug-16 08:31N 59°47' E 018°52'4 7.4
2017-Aug-16 08:00N 59°50' E 018°56'1 2.9
2017-Aug-16 07:30N 59°52' E 018°57'815.5
2017-Aug-16 07:01N 59°45' E 019°05'918.4
2017-Aug-16 06:30N 59°44' E 019°23'0 0.4
2017-Aug-16 06:00N 59°44' E 019°23'0 0.0
2017-Aug-16 05:30N 59°44' E 019°23'0 0.0
2017-Aug-16 05:00N 59°44' E 019°23'0 0.0
2017-Aug-16 04:30N 59°44' E 019°23'0 0.0
2017-Aug-16 04:00N 59°44' E 019°23'0 0.0
2017-Aug-16 03:30N 59°44' E 019°23'0 0.0
2017-Aug-16 03:01N 59°44' E 019°23'0 0.0
2017-Aug-16 02:30N 59°44' E 019°23'0 0.0
2017-Aug-16 01:59N 59°44' E 019°23'0 0.0
2017-Aug-16 01:29N 59°44' E 019°23'0 0.0
2017-Aug-16 00:59N 59°44' E 019°23'0 0.0
2017-Aug-16 00:28N 59°44' E 019°23'0 0.0
2017-Aug-16 00:00N 59°44' E 019°23'0 0.0
2017-Aug-15 23:30N 59°44' E 019°23'0 0.0
2017-Aug-15 23:00N 59°44' E 019°23'0 0.0
2017-Aug-15 22:30N 59°44' E 019°23'0 0.0
2017-Aug-15 22:00N 59°44' E 019°23'0 0.0
2017-Aug-15 21:29N 59°44' E 019°23'2 4.4
2017-Aug-15 21:01N 59°43' E 019°19'1122.4
2017-Aug-15 20:30N 59°36' E 019°02'3 6.6
2017-Aug-15 20:00N 59°37' E 018°56'0 0.0
2017-Aug-15 19:30N 59°37' E 018°56'0 0.0
2017-Aug-15 19:00N 59°37' E 018°56'0 0.0
2017-Aug-15 18:30N 59°37' E 018°56'0 0.0
2017-Aug-15 18:00N 59°37' E 018°56'0 0.7
2017-Aug-15 17:30N 59°37' E 018°55'918.6
2017-Aug-15 17:00N 59°45' E 019°05'816.5
2017-Aug-15 16:31N 59°39' E 018°54'1732.6
2017-Aug-15 16:00N 59°29' E 018°27'611.5
2017-Aug-15 15:30N 59°24' E 018°22'2 4.4
2017-Aug-15 15:00N 59°23' E 018°19'611.2
2017-Aug-15 14:30N 59°20' E 018°10'0 1.0
2017-Aug-15 14:00N 59°19' E 018°10'0 0.1
2017-Aug-15 13:29N 59°19' E 018°10'3 5.3
2017-Aug-15 12:58N 59°18' E 018°04'3 6.7
2017-Aug-15 12:30N 59°20' E 017°60'0 0.9
2017-Aug-15 12:00N 59°20' E 018°00'0 0.0
2017-Aug-15 11:30N 59°20' E 018°00'0 0.0
2017-Aug-15 11:00N 59°20' E 018°00'0 0.0
2017-Aug-15 10:30N 59°20' E 018°00'0 0.0
2017-Aug-15 10:00N 59°20' E 018°00'1 1.8
2017-Aug-15 09:30N 59°19' E 017°60'1 2.5
2017-Aug-15 09:00N 59°20' E 018°02'1 2.6
2017-Aug-15 08:31N 59°19' E 018°00'3 5.2
2017-Aug-15 08:00N 59°18' E 018°05'3 5.3
2017-Aug-15 07:30N 59°19' E 018°09'0 0.2
2017-Aug-15 07:00N 59°19' E 018°10'0 0.0
2017-Aug-15 06:30N 59°19' E 018°10'0 0.0
2017-Aug-15 06:00N 59°19' E 018°10'0 0.0
2017-Aug-15 05:30N 59°19' E 018°10'0 0.0
2017-Aug-15 05:00N 59°19' E 018°10'0 0.0
2017-Aug-15 04:30N 59°19' E 018°10'0 0.0
2017-Aug-15 04:00N 59°19' E 018°10'0 0.0
2017-Aug-15 03:30N 59°19' E 018°10'0 0.0
2017-Aug-15 03:01N 59°19' E 018°10'0 0.0
2017-Aug-15 02:30N 59°19' E 018°10'0 0.0
2017-Aug-15 02:00N 59°19' E 018°10'0 0.0
2017-Aug-15 01:30N 59°19' E 018°10'0 0.0
2017-Aug-15 01:00N 59°19' E 018°10'0 0.0
2017-Aug-15 00:30N 59°19' E 018°10'0 0.0
2017-Aug-15 00:01N 59°19' E 018°10'0 0.0
2017-Aug-14 23:30N 59°19' E 018°10'0 0.0
2017-Aug-14 23:00N 59°19' E 018°10'0 0.0
2017-Aug-14 22:30N 59°19' E 018°10'0 0.0
2017-Aug-14 22:00N 59°19' E 018°10'0 0.0
2017-Aug-14 21:30N 59°19' E 018°10'0 0.0
2017-Aug-14 21:00N 59°19' E 018°10'0 0.0
2017-Aug-14 20:31N 59°19' E 018°10'0 0.0
2017-Aug-14 20:00N 59°19' E 018°10'0 0.0
2017-Aug-14 19:30N 59°19' E 018°10'0 0.0
2017-Aug-14 19:00N 59°19' E 018°10'0 0.0
2017-Aug-14 18:30N 59°19' E 018°10'0 0.0
2017-Aug-14 18:00N 59°19' E 018°10'0 0.0
2017-Aug-14 17:30N 59°19' E 018°10'0 0.0
2017-Aug-14 17:00N 59°19' E 018°10'0 0.0
2017-Aug-14 16:30N 59°19' E 018°10'0 0.0
2017-Aug-14 16:00N 59°19' E 018°10'0 0.0
2017-Aug-14 15:29N 59°19' E 018°10'0 0.0
2017-Aug-14 14:59N 59°19' E 018°10'0 0.0
2017-Aug-14 14:30N 59°19' E 018°10'1 1.5
2017-Aug-14 14:00N 59°20' E 018°10'3 6.6
2017-Aug-14 13:31N 59°18' E 018°05'2 3.8
2017-Aug-14 12:59N 59°19' E 018°01'2 4.2
2017-Aug-14 12:30N 59°18' E 018°05'2 3.4
2017-Aug-14 12:00N 59°19' E 018°07'1 2.3
2017-Aug-14 11:30N 59°19' E 018°10'2 3.8
2017-Aug-14 11:00N 59°21' E 018°08'5 9.0
2017-Aug-14 10:29N 59°24' E 018°01'0 0.1
2017-Aug-14 10:00N 59°24' E 018°01'1 1.1
2017-Aug-14 09:30N 59°23' E 018°02'4 8.2
2017-Aug-14 09:01N 59°21' E 018°08'2 4.0
2017-Aug-14 08:30N 59°19' E 018°10'0 0.1
2017-Aug-14 08:00N 59°19' E 018°10'0 0.0
2017-Aug-14 07:30N 59°19' E 018°10'0 0.0
2017-Aug-14 07:00N 59°19' E 018°10'0 0.0
2017-Aug-14 06:30N 59°19' E 018°10'0 0.0
2017-Aug-14 06:01N 59°19' E 018°10'0 0.0
2017-Aug-14 05:30N 59°19' E 018°10'0 0.0
2017-Aug-14 05:00N 59°19' E 018°10'0 0.0
2017-Aug-14 04:30N 59°19' E 018°10'0 0.0
2017-Aug-14 04:00N 59°19' E 018°10'0 0.0
2017-Aug-14 03:30N 59°19' E 018°10'0 0.0
2017-Aug-14 03:00N 59°19' E 018°10'0 0.0
2017-Aug-14 02:30N 59°19' E 018°10'0 0.0
2017-Aug-14 02:00N 59°19' E 018°10'0 0.0
2017-Aug-14 01:30N 59°19' E 018°10'0 0.0
2017-Aug-14 01:00N 59°19' E 018°10'0 0.0
2017-Aug-14 00:30N 59°19' E 018°10'0 0.0
2017-Aug-14 00:00N 59°19' E 018°10'0 0.0
2017-Aug-13 23:30N 59°19' E 018°10'0 0.0
2017-Aug-13 23:00N 59°19' E 018°10'0 0.0
2017-Aug-13 22:30N 59°19' E 018°10'0 0.0
2017-Aug-13 22:00N 59°19' E 018°10'0 0.0
2017-Aug-13 21:31N 59°19' E 018°10'0 0.0
2017-Aug-13 21:00N 59°19' E 018°10'0 0.0
2017-Aug-13 20:30N 59°19' E 018°10'3 5.2
2017-Aug-13 20:01N 59°20' E 018°05'816.2
2017-Aug-13 19:30N 59°23' E 018°19'1517.0
2017-Aug-13 18:36N 59°28' E 018°48'1 6.5
2017-Aug-13 18:22N 59°29' E 018°48'821.2
2017-Aug-13 18:01N 59°35' E 018°57'1020.5
2017-Aug-13 17:30N 59°45' E 019°05'4 7.2
2017-Aug-13 17:00N 59°47' E 018°58'814.9
2017-Aug-13 16:28N 59°45' E 018°43'0 0.0
2017-Aug-13 15:52N 59°45' E 018°43'3 7.5
2017-Aug-13 15:30N 59°46' E 018°48'611.7
2017-Aug-13 15:01N 59°46' E 018°59'510.1
2017-Aug-13 14:30N 59°43' E 019°06'816.7
2017-Aug-13 14:00N 59°38' E 018°54'713.5
2017-Aug-13 13:28N 59°34' E 018°41'10 8.2
2017-Aug-13 12:12N 59°27' E 018°26'314.2
2017-Aug-13 12:00N 59°25' E 018°22'815.5
2017-Aug-13 11:30N 59°20' E 018°11'1 1.8
2017-Aug-13 11:00N 59°19' E 018°10'0 0.1
2017-Aug-13 10:30N 59°19' E 018°10'0 0.0
2017-Aug-13 10:00N 59°19' E 018°10'0 0.0
2017-Aug-13 09:30N 59°19' E 018°10'0 0.0
2017-Aug-13 09:00N 59°19' E 018°10'0 0.0
2017-Aug-13 08:30N 59°19' E 018°10'0 0.0
2017-Aug-13 08:00N 59°19' E 018°10'0 0.0
2017-Aug-13 07:30N 59°19' E 018°10'0 0.0
2017-Aug-13 07:00N 59°19' E 018°10'0 0.0
2017-Aug-13 06:30N 59°19' E 018°10'0 0.0
2017-Aug-13 06:00N 59°19' E 018°10'0 0.0
2017-Aug-13 05:30N 59°19' E 018°10'0 0.0
2017-Aug-13 05:00N 59°19' E 018°10'0 0.0
2017-Aug-13 04:30N 59°19' E 018°10'0 0.0
2017-Aug-13 04:00N 59°19' E 018°10'0 0.0
2017-Aug-13 03:30N 59°19' E 018°10'0 0.0
2017-Aug-13 03:00N 59°19' E 018°10'0 0.0
2017-Aug-13 02:30N 59°19' E 018°10'0 0.0
2017-Aug-13 02:00N 59°19' E 018°10'0 0.0
2017-Aug-13 01:30N 59°19' E 018°10'0 0.0
2017-Aug-13 01:00N 59°19' E 018°10'3 5.4
2017-Aug-13 00:30N 59°20' E 018°05'2 3.1
2017-Aug-13 00:00N 59°19' E 018°07'3 6.4
2017-Aug-12 23:31N 59°18' E 018°13'510.9
2017-Aug-12 23:00N 59°16' E 018°23'3 0.6
2017-Aug-12 18:05N 59°13' E 018°24'334.7
2017-Aug-12 18:00N 59°16' E 018°23'510.4
2017-Aug-12 17:30N 59°18' E 018°14'2 4.9
2017-Aug-12 17:00N 59°19' E 018°10'0 0.0
2017-Aug-12 16:30N 59°19' E 018°10'0 0.0
2017-Aug-12 16:00N 59°19' E 018°10'0 0.0
2017-Aug-12 15:30N 59°19' E 018°10'1 2.7
2017-Aug-12 15:00N 59°19' E 018°07'1 1.5
2017-Aug-12 14:30N 59°19' E 018°06'2 3.9
2017-Aug-12 14:00N 59°19' E 018°10'0 0.0
2017-Aug-12 13:30N 59°19' E 018°10'0 0.0
2017-Aug-12 13:00N 59°19' E 018°10'0 0.0
2017-Aug-12 12:30N 59°19' E 018°10'611.4
2017-Aug-12 11:59N 59°23' E 018°02'0 0.5
2017-Aug-12 11:28N 59°23' E 018°02'3 6.0
2017-Aug-12 11:00N 59°24' E 018°07'713.8
2017-Aug-12 10:28N 59°25' E 018°22'1019.2
2017-Aug-12 09:58N 59°23' E 018°40'920.3
2017-Aug-12 09:31N 59°17' E 018°55'  
Track history (hours):
 
Tides and Currents Weather Stations Pressure Air Temp Water Temp Dewpoint Dewpoint Depression Visibility Wind Speed Wind Dir Waves Ship Positions

Polis 139-9950

Last reported at 2017-Aug-22 09:00 UTC. Time now 2017-Aug-22 09:14 UTC.
Position N 59°24' E 018°22'.

Length 16 m.

Type: Law enforcement. MMSI: 265565600.

Date/timePositionNaut miles runAvg speedWind from/ knotsBaromVisibWave heightAir tempDewpointWater temp
2017-Aug-22 09:00N 59°24' E 018°22'0 0.5
2017-Aug-22 08:29N 59°24' E 018°22'816.4
2017-Aug-22 08:00N 59°19' E 018°10'0 0.0
2017-Aug-22 07:30N 59°19' E 018°10'0 0.0
2017-Aug-22 07:00N 59°19' E 018°10'0 0.0
2017-Aug-22 06:30N 59°19' E 018°10'0 0.0
2017-Aug-22 06:00N 59°19' E 018°10'0 0.0
2017-Aug-22 05:30N 59°19' E 018°10'0 0.0
2017-Aug-22 05:00N 59°19' E 018°10'0 0.0
2017-Aug-22 04:30N 59°19' E 018°10'0 0.0
2017-Aug-22 04:00N 59°19' E 018°10'0 0.0
2017-Aug-22 03:30N 59°19' E 018°10'0 0.0
2017-Aug-22 03:00N 59°19' E 018°10'0 0.0
2017-Aug-22 02:30N 59°19' E 018°10'0 0.0
2017-Aug-22 02:00N 59°19' E 018°10'0 0.0
2017-Aug-22 01:30N 59°19' E 018°10'0 0.0
2017-Aug-22 00:59N 59°19' E 018°10'0 0.0
2017-Aug-22 00:30N 59°19' E 018°10'0 0.0
2017-Aug-22 00:00N 59°19' E 018°10'0 0.0
2017-Aug-21 23:30N 59°19' E 018°10'0 0.0
2017-Aug-21 23:00N 59°19' E 018°10'0 0.0
2017-Aug-21 22:30N 59°19' E 018°10'0 0.0
2017-Aug-21 22:00N 59°19' E 018°10'0 0.0
2017-Aug-21 21:30N 59°19' E 018°10'0 0.0
2017-Aug-21 21:00N 59°19' E 018°10'0 0.0
2017-Aug-21 20:30N 59°19' E 018°10'0 0.0
2017-Aug-21 20:00N 59°19' E 018°10'0 0.0
2017-Aug-21 19:30N 59°19' E 018°10'0 0.0
2017-Aug-21 19:00N 59°19' E 018°10'0 0.0
2017-Aug-21 18:30N 59°19' E 018°10'0 0.0
2017-Aug-21 18:00N 59°19' E 018°10'0 0.0
2017-Aug-21 17:30N 59°19' E 018°10'0 0.0
2017-Aug-21 17:00N 59°19' E 018°10'0 0.0
2017-Aug-21 16:30N 59°19' E 018°10'0 0.0
2017-Aug-21 16:00N 59°19' E 018°10'0 0.0
2017-Aug-21 15:30N 59°19' E 018°10'0 0.0
2017-Aug-21 15:00N 59°19' E 018°10'0 0.0
2017-Aug-21 14:30N 59°19' E 018°10'0 0.0
2017-Aug-21 14:00N 59°19' E 018°10'0 0.0
2017-Aug-21 13:30N 59°19' E 018°10'2 4.5
2017-Aug-21 13:00N 59°18' E 018°06'2 4.6
2017-Aug-21 12:29N 59°19' E 018°01'1 2.1
2017-Aug-21 11:59N 59°19' E 017°59'1 2.1
2017-Aug-21 11:30N 59°20' E 017°60'1 1.3
2017-Aug-21 11:00N 59°21' E 017°59'1 0.7
2017-Aug-21 10:19N 59°21' E 017°58'0 0.0
2017-Aug-21 09:51N 59°21' E 017°58'0 1.2
2017-Aug-21 09:30N 59°21' E 017°59'3 6.7
2017-Aug-21 09:00N 59°18' E 018°03'2 3.1
2017-Aug-21 08:30N 59°19' E 018°06'2 3.6
2017-Aug-21 08:00N 59°19' E 018°10'0 0.0
2017-Aug-21 07:30N 59°19' E 018°10'0 0.0
2017-Aug-21 07:00N 59°19' E 018°10'0 0.0
2017-Aug-21 06:30N 59°19' E 018°10'0 0.0
2017-Aug-21 06:00N 59°19' E 018°10'0 0.0
2017-Aug-21 05:30N 59°19' E 018°10'0 0.0
2017-Aug-21 05:00N 59°19' E 018°10'0 0.0
2017-Aug-21 04:30N 59°19' E 018°10'0 0.0
2017-Aug-21 04:00N 59°19' E 018°10'0 0.0
2017-Aug-21 03:30N 59°19' E 018°10'0 0.0
2017-Aug-21 03:00N 59°19' E 018°10'0 0.0
2017-Aug-21 02:30N 59°19' E 018°10'0 0.0
2017-Aug-21 02:00N 59°19' E 018°10'0 0.0
2017-Aug-21 01:30N 59°19' E 018°10'0 0.0
2017-Aug-21 01:00N 59°19' E 018°10'0 0.0
2017-Aug-21 00:30N 59°19' E 018°10'0 0.0
2017-Aug-21 00:00N 59°19' E 018°10'0 0.0
2017-Aug-20 23:30N 59°19' E 018°10'0 0.0
2017-Aug-20 23:00N 59°19' E 018°10'0 0.0
2017-Aug-20 22:30N 59°19' E 018°10'0 0.0
2017-Aug-20 22:00N 59°19' E 018°10'0 0.0
2017-Aug-20 21:30N 59°19' E 018°10'0 0.0
2017-Aug-20 21:00N 59°19' E 018°10'0 0.0
2017-Aug-20 20:31N 59°19' E 018°10'0 0.0
2017-Aug-20 20:00N 59°19' E 018°10'0 0.0
2017-Aug-20 19:30N 59°19' E 018°10'0 0.1
2017-Aug-20 19:00N 59°19' E 018°10'0 0.1
2017-Aug-20 18:30N 59°19' E 018°10'0 0.0
2017-Aug-20 18:00N 59°19' E 018°10'0 0.0
2017-Aug-20 17:31N 59°19' E 018°10'0 0.0
2017-Aug-20 17:00N 59°19' E 018°10'0 0.0
2017-Aug-20 16:30N 59°19' E 018°10'1 2.7
2017-Aug-20 16:00N 59°20' E 018°12'1929.0
2017-Aug-20 15:22N 59°33' E 018°37'1132.0
2017-Aug-20 15:01N 59°40' E 018°56'714.0
2017-Aug-20 14:30N 59°45' E 019°05'5 9.1
2017-Aug-20 14:01N 59°45' E 019°14'510.6
2017-Aug-20 13:30N 59°45' E 019°24'0 0.0
2017-Aug-20 13:00N 59°45' E 019°24'0 0.0
2017-Aug-20 12:30N 59°45' E 019°24'0 0.0
2017-Aug-20 12:00N 59°45' E 019°24'0 0.0
2017-Aug-20 11:30N 59°45' E 019°24'0 0.0
2017-Aug-20 11:00N 59°45' E 019°24'0 0.0
2017-Aug-20 10:30N 59°45' E 019°24'0 0.0
2017-Aug-20 10:00N 59°45' E 019°24'0 0.0
2017-Aug-20 09:30N 59°45' E 019°24'2 3.0
2017-Aug-20 09:00N 59°44' E 019°23'0 0.0
2017-Aug-20 08:30N 59°44' E 019°23'0 0.0
2017-Aug-20 08:00N 59°44' E 019°23'0 0.0
2017-Aug-20 07:30N 59°44' E 019°23'0 0.0
2017-Aug-20 07:00N 59°44' E 019°23'0 0.0
2017-Aug-20 06:30N 59°44' E 019°23'0 0.0
2017-Aug-20 06:00N 59°44' E 019°23'0 0.0
2017-Aug-20 05:30N 59°44' E 019°23'0 0.0
2017-Aug-20 05:00N 59°44' E 019°23'0 0.0
2017-Aug-20 04:30N 59°44' E 019°23'0 0.0
2017-Aug-20 04:00N 59°44' E 019°23'0 0.0
2017-Aug-20 03:31N 59°44' E 019°23'0 0.0
2017-Aug-20 03:00N 59°44' E 019°23'0 0.0
2017-Aug-20 02:30N 59°44' E 019°23'0 0.0
2017-Aug-20 02:00N 59°44' E 019°23'0 0.0
2017-Aug-20 01:30N 59°44' E 019°23'0 0.0
2017-Aug-20 01:00N 59°44' E 019°23'0 0.0
2017-Aug-20 00:30N 59°44' E 019°23'0 0.0
2017-Aug-20 00:00N 59°44' E 019°23'2 4.1
2017-Aug-19 23:30N 59°43' E 019°19'612.2
2017-Aug-19 23:01N 59°45' E 019°08'5 9.6
2017-Aug-19 22:30N 59°46' E 018°59'4 7.8
2017-Aug-19 22:00N 59°46' E 018°51'2 5.0
2017-Aug-19 21:30N 59°45' E 018°46'2 3.7
2017-Aug-19 21:00N 59°46' E 018°49'4 7.8
2017-Aug-19 20:30N 59°47' E 018°57'4 7.6
2017-Aug-19 20:00N 59°46' E 019°04'1122.0
2017-Aug-19 19:31N 59°38' E 018°50'15 8.2
2017-Aug-19 17:44N 59°27' E 018°31'514.1
2017-Aug-19 17:24N 59°24' E 018°38'6 4.5
2017-Aug-19 16:00N 59°25' E 018°27'917.2
2017-Aug-19 15:30N 59°20' E 018°13'2 4.2
2017-Aug-19 15:00N 59°19' E 018°10'0 0.0
2017-Aug-19 14:00N 59°19' E 018°10'0 0.0
2017-Aug-19 13:30N 59°19' E 018°10'0 0.0
2017-Aug-19 13:00N 59°19' E 018°10'0 0.0
2017-Aug-19 12:31N 59°19' E 018°10'0 0.0
2017-Aug-19 12:00N 59°19' E 018°10'0 0.0
2017-Aug-19 11:30N 59°19' E 018°10'0 0.0
2017-Aug-19 11:01N 59°19' E 018°10'0 0.0
2017-Aug-19 10:30N 59°19' E 018°10'0 0.0
2017-Aug-19 10:00N 59°19' E 018°10'0 0.0
2017-Aug-19 09:30N 59°19' E 018°10'0 0.0
2017-Aug-19 09:00N 59°19' E 018°10'0 0.0
2017-Aug-19 08:30N 59°19' E 018°10'0 0.0
2017-Aug-19 08:01N 59°19' E 018°10'0 0.0
2017-Aug-19 07:31N 59°19' E 018°10'0 0.0
2017-Aug-19 07:00N 59°19' E 018°10'0 0.0
2017-Aug-19 06:31N 59°19' E 018°10'0 0.0
2017-Aug-19 06:00N 59°19' E 018°10'0 0.0
2017-Aug-19 05:31N 59°19' E 018°10'0 0.0
2017-Aug-19 05:00N 59°19' E 018°10'0 0.0
2017-Aug-19 04:30N 59°19' E 018°10'0 0.0
2017-Aug-19 04:01N 59°19' E 018°10'0 0.0
2017-Aug-19 03:30N 59°19' E 018°10'0 0.0
2017-Aug-19 03:00N 59°19' E 018°10'0 0.0
2017-Aug-19 02:31N 59°19' E 018°10'0 0.0
2017-Aug-19 02:01N 59°19' E 018°10'0 0.0
2017-Aug-19 01:31N 59°19' E 018°10'0 0.0
2017-Aug-19 01:00N 59°19' E 018°10'0 0.0
2017-Aug-19 00:30N 59°19' E 018°10'0 0.0
2017-Aug-19 00:01N 59°19' E 018°10'0 0.0
2017-Aug-18 23:30N 59°19' E 018°10'0 0.0
2017-Aug-18 23:00N 59°19' E 018°10'0 0.0
2017-Aug-18 22:30N 59°19' E 018°10'0 0.0
2017-Aug-18 22:00N 59°19' E 018°10'0 0.0
2017-Aug-18 21:30N 59°19' E 018°10'0 0.0
2017-Aug-18 21:01N 59°19' E 018°10'0 0.0
2017-Aug-18 20:30N 59°19' E 018°10'0 0.0
2017-Aug-18 20:01N 59°19' E 018°10'0 0.0
2017-Aug-18 19:30N 59°19' E 018°10'0 0.0
2017-Aug-18 19:01N 59°19' E 018°10'0 0.0
2017-Aug-18 18:31N 59°19' E 018°10'0 0.0
2017-Aug-18 18:01N 59°19' E 018°10'0 0.0
2017-Aug-18 17:31N 59°19' E 018°10'0 0.0
2017-Aug-18 17:00N 59°19' E 018°10'0 0.0
2017-Aug-18 16:31N 59°19' E 018°10'0 0.0
2017-Aug-18 16:01N 59°19' E 018°10'0 0.0
2017-Aug-18 15:30N 59°19' E 018°10'0 0.0
2017-Aug-18 15:00N 59°19' E 018°10'0 0.0
2017-Aug-18 14:00N 59°19' E 018°10'0 0.0
2017-Aug-18 13:30N 59°19' E 018°10'0 0.0
2017-Aug-18 13:00N 59°19' E 018°10'1 1.5
2017-Aug-18 12:30N 59°20' E 018°10'3 5.9
2017-Aug-18 12:00N 59°22' E 018°06'4 8.0
2017-Aug-18 11:31N 59°24' E 018°00'0 0.4
2017-Aug-18 10:35N 59°25' E 017°60'0 5.4
2017-Aug-18 10:31N 59°24' E 018°00'611.6
2017-Aug-18 10:01N 59°21' E 018°09'1 3.0
2017-Aug-18 09:30N 59°19' E 018°10'0 0.2
2017-Aug-18 09:01N 59°19' E 018°10'0 0.2
2017-Aug-18 08:30N 59°19' E 018°10'0 0.0
2017-Aug-18 08:00N 59°19' E 018°10'0 0.0
2017-Aug-18 07:30N 59°19' E 018°10'0 0.0
2017-Aug-18 07:00N 59°19' E 018°10'0 0.0
2017-Aug-18 06:29N 59°19' E 018°10'0 0.0
2017-Aug-18 06:00N 59°19' E 018°10'0 0.0
2017-Aug-18 05:30N 59°19' E 018°10'0 0.0
2017-Aug-18 05:00N 59°19' E 018°10'0 0.0
2017-Aug-18 04:30N 59°19' E 018°10'0 0.0
2017-Aug-18 04:00N 59°19' E 018°10'0 0.0
2017-Aug-18 03:30N 59°19' E 018°10'0 0.0
2017-Aug-18 03:00N 59°19' E 018°10'0 0.0
2017-Aug-18 02:30N 59°19' E 018°10'0 0.0
2017-Aug-18 02:00N 59°19' E 018°10'0 0.0
2017-Aug-18 01:30N 59°19' E 018°10'0 0.0
2017-Aug-18 01:00N 59°19' E 018°10'3 6.6
2017-Aug-18 00:31N 59°21' E 018°15'1020.3
2017-Aug-18 00:01N 59°29' E 018°27'713.0
2017-Aug-17 23:30N 59°33' E 018°37'3 6.2
2017-Aug-17 23:01N 59°35' E 018°42'3 6.3
2017-Aug-17 22:30N 59°36' E 018°48'1 2.2
2017-Aug-17 22:01N 59°37' E 018°49'1121.5
2017-Aug-17 21:30N 59°31' E 018°31'1631.1
2017-Aug-17 21:01N 59°20' E 018°11'1 1.8
2017-Aug-17 20:29N 59°19' E 018°10'0 0.0
2017-Aug-17 20:00N 59°19' E 018°10'0 0.0
2017-Aug-17 19:30N 59°19' E 018°10'0 0.0
2017-Aug-17 19:00N 59°19' E 018°10'0 0.0
2017-Aug-17 18:31N 59°19' E 018°10'0 0.0
2017-Aug-17 18:00N 59°19' E 018°10'0 0.0
2017-Aug-17 17:29N 59°19' E 018°10'0 0.0
2017-Aug-17 17:00N 59°19' E 018°10'0 0.0
2017-Aug-17 16:30N 59°19' E 018°10'0 0.0
2017-Aug-17 16:00N 59°19' E 018°10'0 0.0
2017-Aug-17 15:30N 59°19' E 018°10'0 0.0
2017-Aug-17 15:00N 59°19' E 018°10'0 0.0
2017-Aug-17 14:30N 59°19' E 018°10'0 0.0
2017-Aug-17 14:00N 59°19' E 018°10'0 0.0
2017-Aug-17 13:30N 59°19' E 018°10'0 0.0
2017-Aug-17 13:00N 59°19' E 018°10'0 0.0
2017-Aug-17 12:30N 59°19' E 018°10'0 0.0
2017-Aug-17 12:00N 59°19' E 018°10'0 0.0
2017-Aug-17 11:30N 59°19' E 018°10'713.9
2017-Aug-17 11:00N 59°22' E 018°22'5 9.6
2017-Aug-17 10:28N 59°27' E 018°19'0 0.3
2017-Aug-17 09:54N 59°27' E 018°19'1 2.7
2017-Aug-17 09:26N 59°28' E 018°17'3 7.6
2017-Aug-17 08:58N 59°27' E 018°23'1619.8
2017-Aug-17 08:09N 59°22' E 018°54'2 6.5
2017-Aug-17 07:54N 59°21' E 018°56'4 9.0
2017-Aug-17 07:30N 59°17' E 018°57'0 0.0
2017-Aug-17 07:00N 59°17' E 018°57'0 0.0
2017-Aug-17 06:31N 59°17' E 018°57'0 0.0
2017-Aug-17 05:59N 59°17' E 018°57'0 0.0
2017-Aug-17 05:31N 59°17' E 018°57'0 0.0
2017-Aug-17 05:00N 59°17' E 018°57'0 0.0
2017-Aug-17 04:30N 59°17' E 018°57'0 0.0
2017-Aug-17 04:00N 59°17' E 018°57'0 0.0
2017-Aug-17 03:30N 59°17' E 018°57'0 0.0
2017-Aug-17 03:00N 59°17' E 018°57'0 0.0
2017-Aug-17 02:30N 59°17' E 018°57'0 0.0
2017-Aug-17 00:20N 59°17' E 018°57'0 0.0
2017-Aug-17 00:00N 59°17' E 018°57'0 0.0
2017-Aug-16 23:28N 59°17' E 018°57'0 0.0
2017-Aug-16 23:00N 59°17' E 018°57'7 1.3
2017-Aug-16 17:27N 59°24' E 018°54'511.5
2017-Aug-16 17:01N 59°29' E 018°50'12 8.4
2017-Aug-16 15:33N 59°28' E 018°26'1 3.9
2017-Aug-16 15:18N 59°28' E 018°24'617.7
2017-Aug-16 14:58N 59°22' E 018°24'816.5
2017-Aug-16 14:29N 59°19' E 018°10'0 0.0
2017-Aug-16 14:00N 59°19' E 018°10'0 0.0
2017-Aug-16 13:30N 59°19' E 018°10'1 1.5
2017-Aug-16 13:00N 59°20' E 018°10'1 1.4
2017-Aug-16 12:30N 59°19' E 018°10'815.0
2017-Aug-16 11:58N 59°24' E 018°22'1220.5
2017-Aug-16 11:22N 59°34' E 018°37'1028.3
2017-Aug-16 11:01N 59°39' E 018°54'815.4
2017-Aug-16 10:30N 59°46' E 018°59'816.7
2017-Aug-16 10:00N 59°45' E 018°43'0 0.3
2017-Aug-16 09:31N 59°45' E 018°43'2 3.4
2017-Aug-16 09:00N 59°45' E 018°46'4 7.4
2017-Aug-16 08:31N 59°47' E 018°52'4 7.4
2017-Aug-16 08:00N 59°50' E 018°56'1 2.9
2017-Aug-16 07:30N 59°52' E 018°57'815.5
2017-Aug-16 07:01N 59°45' E 019°05'918.4
2017-Aug-16 06:30N 59°44' E 019°23'0 0.4
2017-Aug-16 06:00N 59°44' E 019°23'0 0.0
2017-Aug-16 05:30N 59°44' E 019°23'0 0.0
2017-Aug-16 05:00N 59°44' E 019°23'0 0.0
2017-Aug-16 04:30N 59°44' E 019°23'0 0.0
2017-Aug-16 04:00N 59°44' E 019°23'0 0.0
2017-Aug-16 03:30N 59°44' E 019°23'0 0.0
2017-Aug-16 03:01N 59°44' E 019°23'0 0.0
2017-Aug-16 02:30N 59°44' E 019°23'0 0.0
2017-Aug-16 01:59N 59°44' E 019°23'0 0.0
2017-Aug-16 01:29N 59°44' E 019°23'0 0.0
2017-Aug-16 00:59N 59°44' E 019°23'0 0.0
2017-Aug-16 00:28N 59°44' E 019°23'0 0.0
2017-Aug-16 00:00N 59°44' E 019°23'0 0.0
2017-Aug-15 23:30N 59°44' E 019°23'0 0.0
2017-Aug-15 23:00N 59°44' E 019°23'0 0.0
2017-Aug-15 22:30N 59°44' E 019°23'0 0.0
2017-Aug-15 22:00N 59°44' E 019°23'0 0.0
2017-Aug-15 21:29N 59°44' E 019°23'2 4.4
2017-Aug-15 21:01N 59°43' E 019°19'1122.4
2017-Aug-15 20:30N 59°36' E 019°02'3 6.6
2017-Aug-15 20:00N 59°37' E 018°56'0 0.0
2017-Aug-15 19:30N 59°37' E 018°56'0 0.0
2017-Aug-15 19:00N 59°37' E 018°56'0 0.0
2017-Aug-15 18:30N 59°37' E 018°56'0 0.0
2017-Aug-15 18:00N 59°37' E 018°56'0 0.7
2017-Aug-15 17:30N 59°37' E 018°55'918.6
2017-Aug-15 17:00N 59°45' E 019°05'816.5
2017-Aug-15 16:31N 59°39' E 018°54'1732.6
2017-Aug-15 16:00N 59°29' E 018°27'611.5
2017-Aug-15 15:30N 59°24' E 018°22'2 4.4
2017-Aug-15 15:00N 59°23' E 018°19'611.2
2017-Aug-15 14:30N 59°20' E 018°10'0 1.0
2017-Aug-15 14:00N 59°19' E 018°10'0 0.1
2017-Aug-15 13:29N 59°19' E 018°10'3 5.3
2017-Aug-15 12:58N 59°18' E 018°04'3 6.7
2017-Aug-15 12:30N 59°20' E 017°60'0 0.9
2017-Aug-15 12:00N 59°20' E 018°00'0 0.0
2017-Aug-15 11:30N 59°20' E 018°00'0 0.0
2017-Aug-15 11:00N 59°20' E 018°00'0 0.0
2017-Aug-15 10:30N 59°20' E 018°00'0 0.0
2017-Aug-15 10:00N 59°20' E 018°00'1 1.8
2017-Aug-15 09:30N 59°19' E 017°60'1 2.5
2017-Aug-15 09:00N 59°20' E 018°02'1 2.6
2017-Aug-15 08:31N 59°19' E 018°00'3 5.2
2017-Aug-15 08:00N 59°18' E 018°05'3 5.3
2017-Aug-15 07:30N 59°19' E 018°09'0 0.2
2017-Aug-15 07:00N 59°19' E 018°10'0 0.0
2017-Aug-15 06:30N 59°19' E 018°10'0 0.0
2017-Aug-15 06:00N 59°19' E 018°10'0 0.0
2017-Aug-15 05:30N 59°19' E 018°10'0 0.0
2017-Aug-15 05:00N 59°19' E 018°10'0 0.0
2017-Aug-15 04:30N 59°19' E 018°10'0 0.0
2017-Aug-15 04:00N 59°19' E 018°10'0 0.0
2017-Aug-15 03:30N 59°19' E 018°10'0 0.0
2017-Aug-15 03:01N 59°19' E 018°10'0 0.0
2017-Aug-15 02:30N 59°19' E 018°10'0 0.0
2017-Aug-15 02:00N 59°19' E 018°10'0 0.0
2017-Aug-15 01:30N 59°19' E 018°10'0 0.0
2017-Aug-15 01:00N 59°19' E 018°10'0 0.0
2017-Aug-15 00:30N 59°19' E 018°10'0 0.0
2017-Aug-15 00:01N 59°19' E 018°10'0 0.0
2017-Aug-14 23:30N 59°19' E 018°10'0 0.0
2017-Aug-14 23:00N 59°19' E 018°10'0 0.0
2017-Aug-14 22:30N 59°19' E 018°10'0 0.0
2017-Aug-14 22:00N 59°19' E 018°10'0 0.0
2017-Aug-14 21:30N 59°19' E 018°10'0 0.0
2017-Aug-14 21:00N 59°19' E 018°10'0 0.0
2017-Aug-14 20:31N 59°19' E 018°10'0 0.0
2017-Aug-14 20:00N 59°19' E 018°10'0 0.0
2017-Aug-14 19:30N 59°19' E 018°10'0 0.0
2017-Aug-14 19:00N 59°19' E 018°10'0 0.0
2017-Aug-14 18:30N 59°19' E 018°10'0 0.0
2017-Aug-14 18:00N 59°19' E 018°10'0 0.0
2017-Aug-14 17:30N 59°19' E 018°10'0 0.0
2017-Aug-14 17:00N 59°19' E 018°10'0 0.0
2017-Aug-14 16:30N 59°19' E 018°10'0 0.0
2017-Aug-14 16:00N 59°19' E 018°10'0 0.0
2017-Aug-14 15:29N 59°19' E 018°10'0 0.0
2017-Aug-14 14:59N 59°19' E 018°10'0 0.0
2017-Aug-14 14:30N 59°19' E 018°10'1 1.5
2017-Aug-14 14:00N 59°20' E 018°10'3 6.6
2017-Aug-14 13:31N 59°18' E 018°05'2 3.8
2017-Aug-14 12:59N 59°19' E 018°01'2 4.2
2017-Aug-14 12:30N 59°18' E 018°05'2 3.4
2017-Aug-14 12:00N 59°19' E 018°07'1 2.3
2017-Aug-14 11:30N 59°19' E 018°10'2 3.8
2017-Aug-14 11:00N 59°21' E 018°08'5 9.0
2017-Aug-14 10:29N 59°24' E 018°01'0 0.1
2017-Aug-14 10:00N 59°24' E 018°01'1 1.1
2017-Aug-14 09:30N 59°23' E 018°02'4 8.2
2017-Aug-14 09:01N 59°21' E 018°08'2 4.0
2017-Aug-14 08:30N 59°19' E 018°10'0 0.1
2017-Aug-14 08:00N 59°19' E 018°10'0 0.0
2017-Aug-14 07:30N 59°19' E 018°10'0 0.0
2017-Aug-14 07:00N 59°19' E 018°10'0 0.0
2017-Aug-14 06:30N 59°19' E 018°10'0 0.0
2017-Aug-14 06:01N 59°19' E 018°10'0 0.0
2017-Aug-14 05:30N 59°19' E 018°10'0 0.0
2017-Aug-14 05:00N 59°19' E 018°10'0 0.0
2017-Aug-14 04:30N 59°19' E 018°10'0 0.0
2017-Aug-14 04:00N 59°19' E 018°10'0 0.0
2017-Aug-14 03:30N 59°19' E 018°10'0 0.0
2017-Aug-14 03:00N 59°19' E 018°10'0 0.0
2017-Aug-14 02:30N 59°19' E 018°10'0 0.0
2017-Aug-14 02:00N 59°19' E 018°10'0 0.0
2017-Aug-14 01:30N 59°19' E 018°10'0 0.0
2017-Aug-14 01:00N 59°19' E 018°10'0 0.0
2017-Aug-14 00:30N 59°19' E 018°10'0 0.0
2017-Aug-14 00:00N 59°19' E 018°10'0 0.0
2017-Aug-13 23:30N 59°19' E 018°10'0 0.0
2017-Aug-13 23:00N 59°19' E 018°10'0 0.0
2017-Aug-13 22:30N 59°19' E 018°10'0 0.0
2017-Aug-13 22:00N 59°19' E 018°10'0 0.0
2017-Aug-13 21:31N 59°19' E 018°10'0 0.0
2017-Aug-13 21:00N 59°19' E 018°10'0 0.0
2017-Aug-13 20:30N 59°19' E 018°10'3 5.2
2017-Aug-13 20:01N 59°20' E 018°05'816.2
2017-Aug-13 19:30N 59°23' E 018°19'1517.0
2017-Aug-13 18:36N 59°28' E 018°48'1 6.5
2017-Aug-13 18:22N 59°29' E 018°48'821.2
2017-Aug-13 18:01N 59°35' E 018°57'1020.5
2017-Aug-13 17:30N 59°45' E 019°05'4 7.2
2017-Aug-13 17:00N 59°47' E 018°58'814.9
2017-Aug-13 16:28N 59°45' E 018°43'0 0.0
2017-Aug-13 15:52N 59°45' E 018°43'3 7.5
2017-Aug-13 15:30N 59°46' E 018°48'611.7
2017-Aug-13 15:01N 59°46' E 018°59'510.1
2017-Aug-13 14:30N 59°43' E 019°06'816.7
2017-Aug-13 14:00N 59°38' E 018°54'713.5
2017-Aug-13 13:28N 59°34' E 018°41'10 8.2
2017-Aug-13 12:12N 59°27' E 018°26'314.2
2017-Aug-13 12:00N 59°25' E 018°22'815.5
2017-Aug-13 11:30N 59°20' E 018°11'1 1.8
2017-Aug-13 11:00N 59°19' E 018°10'0 0.1
2017-Aug-13 10:30N 59°19' E 018°10'0 0.0
2017-Aug-13 10:00N 59°19' E 018°10'0 0.0
2017-Aug-13 09:30N 59°19' E 018°10'0 0.0
2017-Aug-13 09:00N 59°19' E 018°10'0 0.0
2017-Aug-13 08:30N 59°19' E 018°10'0 0.0
2017-Aug-13 08:00N 59°19' E 018°10'0 0.0
2017-Aug-13 07:30N 59°19' E 018°10'0 0.0
2017-Aug-13 07:00N 59°19' E 018°10'0 0.0
2017-Aug-13 06:30N 59°19' E 018°10'0 0.0
2017-Aug-13 06:00N 59°19' E 018°10'0 0.0
2017-Aug-13 05:30N 59°19' E 018°10'0 0.0
2017-Aug-13 05:00N 59°19' E 018°10'0 0.0
2017-Aug-13 04:30N 59°19' E 018°10'0 0.0
2017-Aug-13 04:00N 59°19' E 018°10'0 0.0
2017-Aug-13 03:30N 59°19' E 018°10'0 0.0
2017-Aug-13 03:00N 59°19' E 018°10'0 0.0
2017-Aug-13 02:30N 59°19' E 018°10'0 0.0
2017-Aug-13 02:00N 59°19' E 018°10'0 0.0
2017-Aug-13 01:30N 59°19' E 018°10'0 0.0
2017-Aug-13 01:00N 59°19' E 018°10'3 5.4
2017-Aug-13 00:30N 59°20' E 018°05'2 3.1
2017-Aug-13 00:00N 59°19' E 018°07'3 6.4
2017-Aug-12 23:31N 59°18' E 018°13'510.9
2017-Aug-12 23:00N 59°16' E 018°23'3 0.6
2017-Aug-12 18:05N 59°13' E 018°24'334.7
2017-Aug-12 18:00N 59°16' E 018°23'510.4
2017-Aug-12 17:30N 59°18' E 018°14'2 4.9
2017-Aug-12 17:00N 59°19' E 018°10'0 0.0
2017-Aug-12 16:30N 59°19' E 018°10'0 0.0
2017-Aug-12 16:00N 59°19' E 018°10'0 0.0
2017-Aug-12 15:30N 59°19' E 018°10'1 2.7
2017-Aug-12 15:00N 59°19' E 018°07'1 1.5
2017-Aug-12 14:30N 59°19' E 018°06'2 3.9
2017-Aug-12 14:00N 59°19' E 018°10'0 0.0
2017-Aug-12 13:30N 59°19' E 018°10'0 0.0
2017-Aug-12 13:00N 59°19' E 018°10'0 0.0
2017-Aug-12 12:30N 59°19' E 018°10'611.4
2017-Aug-12 11:59N 59°23' E 018°02'0 0.5
2017-Aug-12 11:28N 59°23' E 018°02'3 6.0
2017-Aug-12 11:00N 59°24' E 018°07'713.8
2017-Aug-12 10:28N 59°25' E 018°22'1019.2
2017-Aug-12 09:58N 59°23' E 018°40'920.3
2017-Aug-12 09:31N 59°17' E 018°55'  

Dump ship's entire track history